Flores Da Cunha, Brazil
Current Conditions -  °F | °C
As of 2:00 PM on Saturday 25 Oct 2014 (Local Time) from SBCO Reporting Station
Broken Clouds Broken Clouds  
Wind Chill: 79°   Ceiling: 2500
Heat Index: 81°   Visibility: 5mi
Dew Point: 66°   Wind: 8mph
Humidity: 65%   Direction: 230°SW
Pressure: 29.94"   Gusts: NA
Location:  29.03°S, 51.18°W
Report Text: SBCO 251600Z 23007KT 8000 BKN025 26/19 Q1014
Loading
Personal Weather Stations






























Interactive Weather Map
Tropical Storm Tracking
New forecast layout! Learn more

10-Day Weather Forecast

Advertisements
Track Severe Weather on mobile